createdAt,value
2023-04-18T00:01:44.735Z,7.75
2023-04-18T00:05:48.245Z,9.88
2023-04-18T00:09:50.044Z,8.77
2023-04-18T00:13:51.722Z,10.98
2023-04-18T00:17:56.613Z,8.45
2023-04-18T00:21:58.389Z,12.18
2023-04-18T00:26:00.286Z,9.00
2023-04-18T00:30:02.184Z,9.25
2023-04-18T00:34:05.762Z,10.38
2023-04-18T00:38:07.583Z,9.90
2023-04-18T00:42:09.533Z,9.68
2023-04-18T00:46:11.368Z,10.45
2023-04-18T00:50:13.401Z,11.63
2023-04-18T00:54:18.723Z,9.73
2023-04-18T00:58:20.639Z,10.45
2023-04-18T01:02:23.026Z,12.15
2023-04-18T01:06:28.769Z,10.18
2023-04-18T01:10:32.322Z,10.20
2023-04-18T01:14:34.191Z,10.52
2023-04-18T01:18:40.414Z,10.35
2023-04-18T01:22:42.889Z,9.73
2023-04-18T01:26:47.761Z,11.55
2023-04-18T01:30:49.518Z,12.65
2023-04-18T01:34:53.913Z,14.65
2023-04-18T01:38:55.981Z,7.20
2023-04-18T01:42:57.711Z,8.10
2023-04-18T01:47:00.167Z,7.97
2023-04-18T01:51:01.948Z,9.73
2023-04-18T01:55:04.182Z,11.75
2023-04-18T01:59:05.899Z,9.93
2023-04-18T02:03:07.872Z,10.60
2023-04-18T02:07:09.763Z,14.07
2023-04-18T02:11:11.519Z,11.23
2023-04-18T02:15:13.749Z,10.85
2023-04-18T02:19:15.474Z,8.83
2023-04-18T02:23:18.498Z,13.63
2023-04-18T02:27:20.282Z,11.15
2023-04-18T02:31:22.015Z,11.05
2023-04-18T02:35:24.264Z,12.70
2023-04-18T02:39:25.976Z,10.93
2023-04-18T02:43:27.724Z,13.88
2023-04-18T02:47:31.662Z,11.43
2023-04-18T02:51:35.742Z,11.68
2023-04-18T02:55:37.763Z,9.40
2023-04-18T02:59:39.594Z,12.37
2023-04-18T03:04:02.715Z,15.48
2023-04-18T03:08:16.533Z,12.05
2023-04-18T03:12:18.366Z,10.20
2023-04-18T03:16:21.521Z,13.32
2023-04-18T03:28:32.673Z,12.82
2023-04-18T03:32:35.375Z,15.20
2023-04-18T03:36:37.536Z,15.27
2023-04-18T03:40:40.312Z,13.60
2023-04-18T03:44:49.943Z,13.48
2023-04-18T03:48:51.923Z,13.07
2023-04-18T03:52:53.713Z,15.50
2023-04-18T03:56:55.930Z,15.68
2023-04-18T04:00:58.501Z,14.85
2023-04-18T04:05:00.531Z,15.90
2023-04-18T04:09:02.761Z,16.97
2023-04-18T04:13:05.050Z,10.68
2023-04-18T04:17:10.658Z,13.45
2023-04-18T04:21:14.427Z,15.38
2023-04-18T04:25:24.614Z,18.70
2023-04-18T04:29:29.320Z,15.73
2023-04-18T04:33:33.508Z,15.23
2023-04-18T04:37:41.314Z,15.23
2023-04-18T04:42:04.749Z,16.58
2023-04-18T04:46:15.705Z,18.30
2023-04-18T04:50:19.069Z,16.58
2023-04-18T04:54:20.853Z,19.20
2023-04-18T04:58:22.821Z,17.43
2023-04-18T05:02:48.783Z,16.70
2023-04-18T05:06:51.104Z,17.77
2023-04-18T05:10:52.801Z,18.70
2023-04-18T05:14:54.446Z,20.77
2023-04-18T05:18:57.011Z,17.05
2023-04-18T05:22:58.724Z,19.05
2023-04-18T05:27:00.648Z,18.38
2023-04-18T05:31:02.628Z,21.00
2023-04-18T05:35:07.282Z,19.42
2023-04-18T05:39:10.642Z,20.02
2023-04-18T05:43:15.680Z,19.23
2023-04-18T05:47:22.731Z,17.40
2023-04-18T05:51:28.777Z,16.35
2023-04-18T05:55:30.540Z,18.65
2023-04-18T05:59:32.534Z,19.85
2023-04-18T06:03:36.816Z,16.13
2023-04-18T06:07:42.810Z,18.90
2023-04-18T06:11:46.890Z,19.65
2023-04-18T06:15:54.999Z,17.50
2023-04-18T06:19:57.652Z,17.80
2023-04-18T06:24:01.632Z,18.33
2023-04-18T06:28:03.478Z,20.73
2023-04-18T06:32:10.802Z,21.33
2023-04-18T06:36:14.145Z,16.25
2023-04-18T06:40:17.681Z,19.30
2023-04-18T06:44:20.645Z,18.60
2023-04-18T06:48:26.682Z,15.95
2023-04-18T06:52:30.727Z,17.73
2023-04-18T06:56:36.429Z,15.63
2023-04-18T07:00:40.612Z,13.38
2023-04-18T07:04:44.089Z,15.63
2023-04-18T07:08:46.093Z,17.60
2023-04-18T07:12:48.985Z,14.00
2023-04-18T07:16:54.379Z,11.82
2023-04-18T07:20:57.957Z,14.15
2023-04-18T07:25:03.026Z,16.15
2023-04-18T07:29:05.132Z,12.40
2023-04-18T07:33:06.864Z,14.20
2023-04-18T07:37:14.677Z,13.98
2023-04-18T07:41:17.885Z,14.15
2023-04-18T07:45:21.426Z,13.33
2023-04-18T07:49:24.020Z,12.13
2023-04-18T07:53:28.693Z,15.25
2023-04-18T07:57:31.992Z,15.82
2023-04-18T08:01:36.032Z,14.95
2023-04-18T08:05:40.553Z,12.70
2023-04-18T08:09:46.618Z,14.63
2023-04-18T08:13:50.613Z,15.73
2023-04-18T08:17:53.797Z,14.95
2023-04-18T08:22:08.034Z,15.52
2023-04-18T08:26:09.906Z,13.77
2023-04-18T08:30:12.242Z,14.88
2023-04-18T08:34:14.234Z,15.13
2023-04-18T08:42:26.599Z,14.77
2023-04-18T08:46:34.331Z,14.05
2023-04-18T08:50:36.391Z,14.35
2023-04-18T08:54:44.242Z,15.35
2023-04-18T08:58:47.614Z,14.63
2023-04-18T09:02:56.179Z,15.57
2023-04-18T09:06:59.605Z,13.25
2023-04-18T09:11:31.032Z,12.10
2023-04-18T09:15:33.125Z,11.50
2023-04-18T09:19:38.669Z,11.32
2023-04-18T09:23:42.041Z,13.05
2023-04-18T09:27:43.889Z,12.80
2023-04-18T09:32:00.226Z,11.48
2023-04-18T09:36:22.536Z,11.18
2023-04-18T09:40:24.507Z,13.05
2023-04-18T09:44:27.199Z,11.68
2023-04-18T09:48:30.773Z,11.43
2023-04-18T09:52:35.819Z,11.23
2023-04-18T09:56:44.070Z,12.85
2023-04-18T10:00:47.093Z,10.57
2023-04-18T10:04:54.525Z,11.93
2023-04-18T10:08:57.579Z,12.80
2023-04-18T10:13:01.693Z,10.23
2023-04-18T10:17:03.776Z,8.60
2023-04-18T10:21:09.584Z,9.43
2023-04-18T10:25:11.371Z,10.38
2023-04-18T10:29:13.370Z,10.93
2023-04-18T10:33:41.021Z,8.85
2023-04-18T10:37:59.845Z,10.27
2023-04-18T10:42:05.436Z,10.73
2023-04-18T10:46:27.728Z,10.02
2023-04-18T10:50:34.357Z,8.82
2023-04-18T10:54:52.599Z,9.38
2023-04-18T10:59:01.973Z,8.18
2023-04-18T11:03:04.104Z,10.80
2023-04-18T11:07:08.581Z,9.10
2023-04-18T11:11:13.495Z,9.13
2023-04-18T11:15:22.325Z,9.20
2023-04-18T11:19:25.944Z,9.80
2023-04-18T11:23:28.979Z,7.90
2023-04-18T11:27:32.771Z,8.43
2023-04-18T11:31:35.576Z,7.68
2023-04-18T11:35:45.698Z,6.22
2023-04-18T11:39:48.109Z,7.07
2023-04-18T11:43:50.002Z,6.68
2023-04-18T11:47:56.769Z,7.28
2023-04-18T11:52:01.434Z,7.82
2023-04-18T11:56:06.593Z,6.63
2023-04-18T12:00:12.786Z,6.43
2023-04-18T12:04:17.021Z,7.85
2023-04-18T12:08:21.846Z,8.13
2023-04-18T12:12:26.580Z,7.55
2023-04-18T12:16:28.583Z,5.68
2023-04-18T12:20:47.552Z,5.07
2023-04-18T12:25:10.366Z,5.55
2023-04-18T12:29:12.446Z,6.60
2023-04-18T12:33:16.438Z,7.95
2023-04-18T12:37:18.598Z,5.53
2023-04-18T12:41:22.730Z,4.68
2023-04-18T12:45:26.140Z,4.68
2023-04-18T12:49:27.894Z,4.90
2023-04-18T12:57:36.580Z,4.95
2023-04-18T13:01:38.325Z,4.93
2023-04-18T13:05:41.198Z,5.15
2023-04-18T13:09:43.037Z,6.95
2023-04-18T13:13:48.126Z,5.75
2023-04-18T13:17:50.449Z,5.57
2023-04-18T13:21:55.605Z,6.38
2023-04-18T13:25:58.959Z,7.43
2023-04-18T13:30:01.332Z,5.88
2023-04-18T13:34:06.932Z,5.80
2023-04-18T13:38:09.079Z,6.30
2023-04-18T13:42:16.078Z,6.40
2023-04-18T13:46:21.619Z,6.32
2023-04-18T13:50:23.409Z,6.27
2023-04-18T13:54:28.997Z,5.97
2023-04-18T13:58:32.928Z,5.63
2023-04-18T14:02:34.788Z,8.43
2023-04-18T14:06:41.617Z,6.22
2023-04-18T14:10:44.189Z,6.60
2023-04-18T14:14:51.229Z,7.25
2023-04-18T14:18:54.053Z,6.13
2023-04-18T14:22:57.596Z,6.97
2023-04-18T14:27:02.876Z,6.47
2023-04-18T14:31:06.777Z,7.73
2023-04-18T14:35:10.121Z,6.28
2023-04-18T14:39:13.910Z,7.38
2023-04-18T14:43:16.632Z,6.78
2023-04-18T14:47:19.702Z,5.80
2023-04-18T14:51:21.430Z,7.95
2023-04-18T14:59:28.979Z,7.10
2023-04-18T15:03:33.069Z,7.25
2023-04-18T15:07:36.174Z,6.05
2023-04-18T15:11:38.210Z,6.85
2023-04-18T15:15:41.243Z,6.95
2023-04-18T15:19:44.687Z,7.88
2023-04-18T15:23:46.835Z,7.93
2023-04-18T15:27:48.570Z,6.47
2023-04-18T15:31:51.637Z,6.22
2023-04-18T15:35:56.636Z,7.65
2023-04-18T15:39:58.928Z,6.03
2023-04-18T15:44:01.654Z,6.65
2023-04-18T15:48:03.701Z,7.70
2023-04-18T15:52:07.180Z,6.57
2023-04-18T15:56:11.670Z,9.10
2023-04-18T16:00:19.792Z,6.63
2023-04-18T16:04:25.660Z,9.13
2023-04-18T16:08:27.548Z,7.93
2023-04-18T16:12:31.154Z,5.38
2023-04-18T16:20:36.718Z,6.10
2023-04-18T16:24:40.886Z,6.18
2023-04-18T16:28:44.151Z,6.40
2023-04-18T16:32:46.212Z,6.07
2023-04-18T16:36:50.741Z,5.57
2023-04-18T16:40:57.551Z,6.53
2023-04-18T16:45:03.355Z,6.20
2023-04-18T16:49:05.256Z,6.18
2023-04-18T16:53:07.974Z,5.60
2023-04-18T16:57:09.803Z,5.80
2023-04-18T17:01:11.465Z,5.13
2023-04-18T17:05:14.709Z,6.45
2023-04-18T17:09:16.885Z,6.72
2023-04-18T17:13:30.403Z,5.60
2023-04-18T17:17:33.251Z,6.00
2023-04-18T17:21:36.121Z,5.57
2023-04-18T17:29:41.068Z,6.33
2023-04-18T17:33:43.183Z,6.32
2023-04-18T17:37:48.754Z,7.65
2023-04-18T17:41:50.876Z,10.32
2023-04-18T17:45:52.725Z,6.30
2023-04-18T17:49:55.247Z,7.82
2023-04-18T17:53:57.134Z,6.55
2023-04-18T17:57:59.005Z,7.17
2023-04-18T18:02:00.782Z,7.32
2023-04-18T18:06:02.953Z,8.48
2023-04-18T18:10:06.554Z,7.57
2023-04-18T18:14:12.022Z,8.07
2023-04-18T18:18:14.118Z,9.00
2023-04-18T18:22:17.880Z,10.23
2023-04-18T18:26:19.765Z,8.95
2023-04-18T18:30:21.705Z,10.82
2023-04-18T18:34:27.831Z,7.95
2023-04-18T18:42:31.346Z,9.63
2023-04-18T18:46:34.432Z,9.68
2023-04-18T18:50:36.381Z,10.87
2023-04-18T18:54:38.070Z,9.40
2023-04-18T18:58:41.604Z,12.32
2023-04-18T19:06:45.328Z,9.52
2023-04-18T19:10:48.835Z,10.27
2023-04-18T19:14:52.593Z,10.85
2023-04-18T19:18:54.354Z,8.05
2023-04-18T19:22:56.025Z,10.30
2023-04-18T19:26:57.820Z,8.82
2023-04-18T19:31:00.125Z,10.35
2023-04-18T19:35:01.939Z,11.45
2023-04-18T19:39:03.787Z,9.38
2023-04-18T19:43:06.925Z,10.45
2023-04-18T19:47:09.127Z,10.53
2023-04-18T19:55:14.167Z,9.77
2023-04-18T19:59:19.607Z,10.35
2023-04-18T20:03:21.874Z,10.32
2023-04-18T20:07:26.266Z,10.45
2023-04-18T20:11:28.597Z,12.05
2023-04-18T20:19:32.772Z,15.77
2023-04-18T20:23:37.855Z,12.52
2023-04-18T20:27:39.758Z,11.73
2023-04-18T20:31:44.672Z,13.30
2023-04-18T20:35:46.910Z,13.57
2023-04-18T20:39:48.594Z,12.65
2023-04-18T20:43:53.820Z,12.98
2023-04-18T20:47:58.899Z,14.23
2023-04-18T20:52:01.132Z,13.18
2023-04-18T20:56:03.632Z,11.10
2023-04-18T21:00:07.394Z,11.02
2023-04-18T21:04:11.228Z,10.15
2023-04-18T21:08:13.199Z,11.43
2023-04-18T21:12:15.144Z,10.68
2023-04-18T21:16:17.217Z,10.77
2023-04-18T21:20:20.665Z,12.63
2023-04-18T21:24:24.080Z,12.75
2023-04-18T21:28:25.912Z,11.82
2023-04-18T21:32:27.701Z,11.27
2023-04-18T21:36:31.386Z,12.82
2023-04-18T21:40:34.943Z,12.32
2023-04-18T21:44:37.613Z,9.88
2023-04-18T21:48:43.586Z,10.10
2023-04-18T21:52:45.289Z,10.90
2023-04-18T21:56:46.978Z,11.00
2023-04-18T22:00:49.436Z,10.35
2023-04-18T22:04:51.322Z,11.70
2023-04-18T22:08:53.733Z,10.57
2023-04-18T22:12:56.229Z,11.15
2023-04-18T22:16:59.499Z,9.18
2023-04-18T22:21:05.599Z,12.52
2023-04-18T22:25:11.813Z,10.57
2023-04-18T22:29:13.627Z,10.38
2023-04-18T22:33:15.508Z,11.75
2023-04-18T22:37:17.567Z,10.95
2023-04-18T22:41:19.263Z,10.90
2023-04-18T22:45:21.076Z,11.27
2023-04-18T22:49:23.317Z,10.68
2023-04-18T22:53:25.151Z,13.80
2023-04-18T22:57:26.870Z,9.65
2023-04-18T23:01:28.655Z,8.90
2023-04-18T23:05:30.526Z,10.05
2023-04-18T23:09:33.272Z,11.52
2023-04-18T23:13:34.942Z,9.65
2023-04-18T23:17:36.608Z,10.38
2023-04-18T23:21:38.390Z,9.70
2023-04-18T23:25:40.117Z,9.82
2023-04-18T23:29:42.776Z,9.77
2023-04-18T23:33:45.462Z,8.40
2023-04-18T23:37:47.120Z,10.88
2023-04-18T23:41:48.865Z,9.18
2023-04-18T23:45:50.886Z,8.90
2023-04-18T23:49:52.847Z,8.10
2023-04-18T23:53:54.514Z,8.63
2023-04-18T23:57:56.189Z,8.52
